Time;durP1;ratioP1;P1;durP2;ratioP2;P2;SDS_P1;SDS_P2;PMS_P1;PMS_P2;Temp;Humidity;BMP_temperature;BMP_pressure;BME280_temperature;BME280_humidity;BME280_pressure;Samples;Min_cycle;Max_cycle;Signal;HPM_P1;HPM_P2
2024/03/07 00:00:54;;;;;;;20.30;12.60;;;;;;;-0.93;100.00;101471.23;105750;1257;72674;-71
2024/03/07 00:03:24;;;;;;;18.80;11.70;;;;;;;-0.96;100.00;101473.13;105750;1256;60538;-71
2024/03/07 00:05:51;;;;;;;23.60;13.20;;;;;;;-1.04;100.00;101472.77;105851;1253;60536;-74
2024/03/07 00:08:18;;;;;;;23.70;14.70;;;;;;;-1.13;100.00;101472.73;105795;1253;73814;-73
2024/03/07 00:10:45;;;;;;;22.60;13.50;;;;;;;-1.17;100.00;101470.68;105731;1253;62268;-71
2024/03/07 00:13:13;;;;;;;22.80;13.90;;;;;;;-1.12;100.00;101470.00;105807;1257;71691;-73
2024/03/07 00:15:41;;;;;;;28.60;15.50;;;;;;;-1.09;100.00;101468.45;105836;1253;60563;-74
2024/03/07 00:18:10;;;;;;;22.80;13.90;;;;;;;-1.10;100.00;101466.56;105745;1254;60417;-73
2024/03/07 00:20:37;;;;;;;25.00;13.10;;;;;;;-1.10;100.00;101466.92;105771;1252;72687;-72
2024/03/07 00:23:04;;;;;;;18.90;12.90;;;;;;;-1.11;100.00;101468.98;105794;1252;62544;-72
2024/03/07 00:25:31;;;;;;;21.10;12.60;;;;;;;-1.14;100.00;101472.73;105713;1253;72647;-73
2024/03/07 00:28:02;;;;;;;26.10;14.80;;;;;;;-1.20;100.00;101472.55;105817;1257;60541;-75
2024/03/07 00:30:29;;;;;;;21.50;12.50;;;;;;;-1.21;100.00;101469.30;106038;1253;60436;-72
2024/03/07 00:32:57;;;;;;;22.90;13.50;;;;;;;-1.20;100.00;101473.77;106347;1253;60470;-72
2024/03/07 00:35:24;;;;;;;23.20;13.70;;;;;;;-1.26;100.00;101469.46;106173;1253;61360;-74
2024/03/07 00:37:51;;;;;;;26.20;12.90;;;;;;;-1.30;100.00;101469.27;106035;1253;71263;-73
2024/03/07 00:40:19;;;;;;;25.30;15.00;;;;;;;-1.28;100.00;101472.36;105678;1253;60491;-75
2024/03/07 00:42:46;;;;;;;25.30;15.20;;;;;;;-1.28;100.00;101470.65;105793;1256;60415;-75
2024/03/07 00:45:12;;;;;;;24.40;14.50;;;;;;;-1.25;100.00;101467.75;105735;1253;71337;-74
2024/03/07 00:47:39;;;;;;;25.40;14.60;;;;;;;-1.23;100.00;101464.14;105788;1253;62381;-75
2024/03/07 00:50:08;;;;;;;22.20;13.50;;;;;;;-1.23;100.00;101464.83;105697;1253;71162;-74
2024/03/07 00:52:35;;;;;;;25.40;15.50;;;;;;;-1.24;100.00;101469.11;105688;1253;60366;-74
2024/03/07 00:55:02;;;;;;;23.70;15.80;;;;;;;-1.29;100.00;101468.24;105726;1257;60387;-75
2024/03/07 00:57:30;;;;;;;24.00;14.20;;;;;;;-1.28;100.00;101467.05;105746;1252;73737;-73
2024/03/07 00:59:57;;;;;;;21.10;13.10;;;;;;;-1.31;100.00;101466.54;105754;1257;64042;-72
2024/03/07 01:02:24;;;;;;;22.30;12.70;;;;;;;-1.36;100.00;101466.69;105867;1253;72388;-74
2024/03/07 01:04:53;;;;;;;24.50;14.30;;;;;;;-1.43;100.00;101466.66;105823;1254;60483;-73
2024/03/07 01:07:21;;;;;;;24.70;15.20;;;;;;;-1.49;100.00;101465.45;105821;1257;60425;-74
2024/03/07 01:09:48;;;;;;;25.40;15.10;;;;;;;-1.48;100.00;101464.60;105873;1253;73760;-73
2024/03/07 01:12:15;;;;;;;25.40;14.30;;;;;;;-1.43;100.00;101466.16;107042;1252;63532;-72
2024/03/07 01:14:42;;;;;;;23.90;14.90;;;;;;;-1.40;100.00;101460.33;107323;1252;74329;-73
2024/03/07 01:17:10;;;;;;;24.20;15.30;;;;;;;-1.38;100.00;101460.85;106111;1253;60462;-73
2024/03/07 01:19:38;;;;;;;26.60;14.80;;;;;;;-1.39;100.00;101466.00;105853;1252;60766;-74
2024/03/07 01:22:05;;;;;;;25.30;15.40;;;;;;;-1.41;100.00;101467.54;105815;1255;73877;-74
2024/03/07 01:24:33;;;;;;;28.60;15.40;;;;;;;-1.36;100.00;101466.00;105949;1252;64662;-75
2024/03/07 01:27:00;;;;;;;28.20;16.50;;;;;;;-1.32;100.00;101465.84;105695;1253;72655;-73
2024/03/07 01:29:37;;;;;;;28.10;16.30;;;;;;;-1.30;100.00;101466.88;105851;1253;60445;-71
2024/03/07 01:32:04;;;;;;;23.50;14.60;;;;;;;-1.25;100.00;101467.58;105837;1257;60343;-73
2024/03/07 01:34:31;;;;;;;27.70;15.30;;;;;;;-1.22;100.00;101471.01;105724;1253;73787;-74
2024/03/07 01:36:58;;;;;;;23.50;14.90;;;;;;;-1.20;100.00;101472.91;105746;1258;63949;-73
2024/03/07 01:39:25;;;;;;;24.20;15.10;;;;;;;-1.23;100.00;101470.50;105769;1258;72747;-73
2024/03/07 01:41:53;;;;;;;24.20;14.60;;;;;;;-1.26;100.00;101471.00;105984;1257;60470;-73
2024/03/07 01:44:20;;;;;;;31.90;15.20;;;;;;;-1.30;100.00;101478.37;105739;1253;60517;-74
2024/03/07 01:46:50;;;;;;;29.20;15.30;;;;;;;-1.34;100.00;101482.82;105803;1253;73833;-74
2024/03/07 01:49:17;;;;;;;25.70;14.90;;;;;;;-1.34;100.00;101484.71;105906;1256;63896;-73
2024/03/07 01:51:44;;;;;;;24.50;15.30;;;;;;;-1.33;100.00;101487.11;105701;1257;72645;-73
2024/03/07 01:54:11;;;;;;;22.20;13.00;;;;;;;-1.37;100.00;101488.13;105826;1257;60498;-73
2024/03/07 01:56:38;;;;;;;31.50;15.90;;;;;;;-1.42;100.00;101490.01;105706;1253;61170;-75
2024/03/07 01:59:05;;;;;;;26.70;14.60;;;;;;;-1.46;100.00;101492.38;105819;1253;73828;-72
2024/03/07 02:01:32;;;;;;;21.40;13.50;;;;;;;-1.48;100.00;101490.84;105780;1257;63996;-74
2024/03/07 02:04:00;;;;;;;22.90;13.60;;;;;;;-1.49;100.00;101489.45;105759;1258;72541;-73
2024/03/07 02:06:27;;;;;;;24.90;14.10;;;;;;;-1.49;100.00;101492.89;105744;1257;61110;-72
2024/03/07 02:08:54;;;;;;;28.80;15.00;;;;;;;-1.46;100.00;101495.81;105723;1254;60444;-73
2024/03/07 02:11:20;;;;;;;25.10;14.40;;;;;;;-1.43;100.00;101497.53;105757;1256;73588;-74
2024/03/07 02:13:48;;;;;;;25.30;14.10;;;;;;;-1.45;100.00;101493.93;105787;1253;62784;-72
2024/03/07 02:16:15;;;;;;;25.70;15.40;;;;;;;-1.47;100.00;101495.29;105773;1257;72364;-73
2024/03/07 02:18:42;;;;;;;27.50;16.30;;;;;;;-1.48;100.00;101500.09;106116;1254;60537;-73
2024/03/07 02:21:10;;;;;;;28.20;14.90;;;;;;;-1.50;100.00;101510.03;106789;1253;60293;-72
2024/03/07 02:23:38;;;;;;;27.00;14.30;;;;;;;-1.54;100.00;101507.95;106241;1253;72673;-72
2024/03/07 02:26:06;;;;;;;22.60;13.50;;;;;;;-1.62;100.00;101508.26;106083;1256;63118;-72
2024/03/07 02:28:33;;;;;;;24.70;14.40;;;;;;;-1.70;100.00;101506.34;106189;1257;72739;-73
2024/03/07 02:31:00;;;;;;;27.60;14.40;;;;;;;-1.70;100.00;101512.00;105983;1253;61129;-75
2024/03/07 02:33:28;;;;;;;21.00;12.20;;;;;;;-1.72;100.00;101510.10;105902;1253;60303;-73
2024/03/07 02:35:55;;;;;;;24.60;13.90;;;;;;;-1.77;100.00;101510.41;105768;1253;73825;-73
2024/03/07 02:38:22;;;;;;;24.40;14.70;;;;;;;-1.80;100.00;101510.23;105872;1253;63741;-72
2024/03/07 02:40:48;;;;;;;27.00;15.60;;;;;;;-1.78;100.00;101508.70;105912;1256;71423;-72
2024/03/07 02:43:15;;;;;;;20.50;12.90;;;;;;;-1.71;100.00;101513.70;105742;1253;60537;-73
2024/03/07 02:45:43;;;;;;;24.50;13.50;;;;;;;-1.69;100.00;101511.66;105862;1257;60426;-73
2024/03/07 02:48:10;;;;;;;23.80;13.50;;;;;;;-1.72;100.00;101510.28;105912;1254;73706;-74
2024/03/07 02:50:38;;;;;;;23.50;14.30;;;;;;;-1.74;100.00;101510.77;105763;1257;63743;-74
2024/03/07 02:53:04;;;;;;;25.40;14.60;;;;;;;-1.76;100.00;101513.00;105748;1257;72538;-74
2024/03/07 02:55:32;;;;;;;25.70;15.60;;;;;;;-1.79;100.00;101512.29;105826;1253;60631;-74
2024/03/07 02:57:59;;;;;;;19.70;12.40;;;;;;;-1.83;100.00;101516.56;105787;1257;62008;-73
2024/03/07 03:00:29;;;;;;;23.50;13.90;;;;;;;-1.89;100.00;101513.95;105697;1253;72955;-73
2024/03/07 03:02:57;;;;;;;30.10;14.90;;;;;;;-1.96;100.00;101512.20;105753;1257;64405;-73
2024/03/07 03:05:24;;;;;;;25.30;12.40;;;;;;;-1.92;100.00;101512.40;105800;1258;72644;-75
2024/03/07 03:07:54;;;;;;;21.80;13.30;;;;;;;-1.86;100.00;101517.05;105763;1253;60448;-74
2024/03/07 03:10:30;;;;;;;23.80;13.50;;;;;;;-1.83;100.00;101516.04;105959;1253;60507;-72
2024/03/07 03:12:58;;;;;;;23.90;12.70;;;;;;;-1.81;100.00;101514.17;105838;1255;72448;-72
2024/03/07 03:15:26;;;;;;;24.40;13.20;;;;;;;-1.78;100.00;101515.21;105852;1257;64028;-73
2024/03/07 03:17:53;;;;;;;26.20;14.00;;;;;;;-1.79;100.00;101515.21;105752;1257;72720;-73
2024/03/07 03:20:25;;;;;;;24.30;14.30;;;;;;;-1.78;100.00;101513.48;105896;1258;60535;-73
2024/03/07 03:22:53;;;;;;;25.90;13.60;;;;;;;-1.77;100.00;101514.54;105905;1253;60445;-72
2024/03/07 03:25:41;;;;;;;24.10;14.10;;;;;;;-1.78;100.00;101516.08;105768;1253;73839;-75
2024/03/07 03:28:09;;;;;;;25.00;14.40;;;;;;;-1.82;100.00;101517.41;105785;1257;64050;-74
2024/03/07 03:30:40;;;;;;;24.20;13.80;;;;;;;-1.90;100.00;101519.60;105790;1258;72439;-74
2024/03/07 03:33:07;;;;;;;23.00;14.30;;;;;;;-1.96;100.00;101517.50;105691;1253;60631;-72
2024/03/07 03:35:34;;;;;;;25.50;13.80;;;;;;;-1.97;100.00;101519.57;105592;1254;344917;-73
2024/03/07 03:40:09;;;;;;;29.60;14.20;;;;;;;-1.94;100.00;101522.66;103068;1285;601534;-73
2024/03/07 03:42:40;;;;;;;27.30;15.60;;;;;;;-1.90;100.00;101522.34;104906;1271;59564;-72
2024/03/07 03:45:09;;;;;;;20.80;12.20;;;;;;;-1.92;100.00;101527.64;105028;1267;59203;-73
2024/03/07 03:47:37;;;;;;;21.50;12.90;;;;;;;-1.99;100.00;101529.65;105005;1264;72288;-76
2024/03/07 03:50:05;;;;;;;26.30;14.50;;;;;;;-2.08;100.00;101530.45;105095;1269;63951;-73
2024/03/07 03:52:34;;;;;;;25.80;14.00;;;;;;;-2.11;100.00;101528.73;105762;1261;238634;-73
2024/03/07 03:55:05;;;;;;;24.90;13.90;;;;;;;-2.07;100.00;101530.80;107132;1261;59193;-72
2024/03/07 03:57:33;;;;;;;22.80;13.90;;;;;;;-2.07;100.00;101524.80;106901;1259;59157;-72
2024/03/07 04:00:00;;;;;;;24.80;14.20;;;;;;;-2.10;100.00;101530.10;106432;1254;70724;-73
2024/03/07 04:02:30;;;;;;;22.50;13.70;;;;;;;-2.10;100.00;101534.72;105635;1259;63135;-71
2024/03/07 04:04:59;;;;;;;21.80;13.00;;;;;;;-2.08;100.00;101536.63;105777;1254;71189;-74
2024/03/07 04:07:26;;;;;;;24.10;13.70;;;;;;;-2.06;100.00;101540.58;105736;1259;59807;-74
2024/03/07 04:09:53;;;;;;;27.00;13.50;;;;;;;-2.01;100.00;101542.33;105813;1253;60300;-75
2024/03/07 04:12:21;;;;;;;26.80;13.70;;;;;;;-1.91;100.00;101546.67;105926;1253;73080;-73
2024/03/07 04:14:48;;;;;;;22.80;14.00;;;;;;;-1.80;100.00;101550.85;105789;1256;64065;-74
2024/03/07 04:17:14;;;;;;;26.10;14.80;;;;;;;-1.69;100.00;101547.66;105770;1256;72456;-74
2024/03/07 04:19:43;;;;;;;20.00;12.30;;;;;;;-1.67;100.00;101554.02;105846;1266;59606;-74
2024/03/07 04:22:10;;;;;;;25.40;12.90;;;;;;;-1.71;100.00;101557.77;105760;1256;59613;-75
2024/03/07 04:24:38;;;;;;;24.50;14.20;;;;;;;-1.81;100.00;101559.41;105628;1259;72032;-75
2024/03/07 04:27:05;;;;;;;24.30;13.20;;;;;;;-1.86;100.00;101561.62;105838;1253;62238;-74
2024/03/07 04:29:32;;;;;;;23.60;13.60;;;;;;;-1.87;100.00;101566.57;105695;1259;72737;-74
2024/03/07 04:32:01;;;;;;;19.40;11.50;;;;;;;-1.89;100.00;101571.88;105822;1259;60410;-74
2024/03/07 04:34:30;;;;;;;24.00;13.40;;;;;;;-1.93;100.00;101564.31;105756;1254;60375;-72
2024/03/07 04:36:58;;;;;;;22.70;12.80;;;;;;;-1.92;100.00;101573.58;105763;1258;72057;-73
2024/03/07 04:39:32;;;;;;;24.40;13.20;;;;;;;-1.85;100.00;101572.08;105817;1259;63830;-75
2024/03/07 04:42:00;;;;;;;21.30;12.60;;;;;;;-1.79;100.00;101573.65;105795;1254;72700;-72
2024/03/07 04:44:29;;;;;;;24.80;14.10;;;;;;;-1.72;100.00;101574.22;105757;1255;59591;-73
2024/03/07 04:46:57;;;;;;;21.60;12.50;;;;;;;-1.69;100.00;101573.72;105857;1256;60125;-74
2024/03/07 04:49:25;;;;;;;20.30;13.10;;;;;;;-1.67;100.00;101576.81;105859;1259;73080;-76
2024/03/07 04:51:57;;;;;;;21.90;13.10;;;;;;;-1.73;100.00;101575.41;105729;1257;65271;-75
2024/03/07 04:54:25;;;;;;;18.50;12.50;;;;;;;-1.73;100.00;101580.55;105768;1260;70152;-75
2024/03/07 04:56:52;;;;;;;24.40;12.70;;;;;;;-1.70;100.00;101580.23;105800;1255;59698;-75
2024/03/07 04:59:20;;;;;;;21.90;13.20;;;;;;;-1.71;100.00;101584.85;105921;1252;60386;-74
2024/03/07 05:01:48;;;;;;;23.30;12.70;;;;;;;-1.71;100.00;101584.34;105921;1258;71934;-75
2024/03/07 05:04:15;;;;;;;20.50;12.90;;;;;;;-1.71;100.00;101588.11;105896;1257;63642;-76
2024/03/07 05:06:43;;;;;;;19.60;12.10;;;;;;;-1.72;100.00;101587.23;105744;1257;72685;-75
2024/03/07 05:09:21;;;;;;;18.70;12.00;;;;;;;-1.72;100.00;101592.03;105719;1257;60431;-74
2024/03/07 05:11:49;;;;;;;19.30;12.50;;;;;;;-1.72;100.00;101592.21;105802;1253;59649;-75
2024/03/07 05:14:16;;;;;;;21.80;12.10;;;;;;;-1.70;100.00;101593.94;105745;1258;72888;-75
2024/03/07 05:16:44;;;;;;;22.30;12.30;;;;;;;-1.66;100.00;101592.59;105843;1259;63545;-75
2024/03/07 05:19:11;;;;;;;24.30;13.00;;;;;;;-1.65;100.00;101596.73;105685;1257;72770;-75
2024/03/07 05:21:40;;;;;;;21.20;12.80;;;;;;;-1.61;100.00;101597.76;105848;1256;59726;-74
2024/03/07 05:24:07;;;;;;;18.00;11.30;;;;;;;-1.51;100.00;101599.02;105773;1254;60509;-74
2024/03/07 05:26:40;;;;;;;18.50;12.30;;;;;;;-1.43;100.00;101601.30;105777;1266;73095;-74
2024/03/07 05:29:08;;;;;;;21.80;11.30;;;;;;;-1.42;100.00;101601.13;105876;1257;63839;-75
2024/03/07 05:31:35;;;;;;;20.60;11.80;;;;;;;-1.44;100.00;101600.44;105756;1257;72628;-74
2024/03/07 05:34:04;;;;;;;18.70;10.80;;;;;;;-1.44;100.00;101602.67;105767;1258;59712;-74
2024/03/07 05:36:32;;;;;;;18.90;11.60;;;;;;;-1.50;100.00;101602.12;105776;1257;60232;-76
2024/03/07 05:38:59;;;;;;;20.70;11.60;;;;;;;-1.54;100.00;101598.33;105768;1257;71572;-76
2024/03/07 05:41:29;;;;;;;16.80;10.80;;;;;;;-1.56;100.00;101598.81;105743;1257;63853;-76
2024/03/07 05:43:56;;;;;;;15.50;10.60;;;;;;;-1.54;100.00;101602.44;105901;1257;72875;-76
2024/03/07 05:46:23;;;;;;;21.00;12.10;;;;;;;-1.53;100.00;101600.20;105856;1255;59711;-74
2024/03/07 05:48:52;;;;;;;18.40;11.20;;;;;;;-1.57;100.00;101602.08;105627;1257;60354;-76
2024/03/07 05:51:18;;;;;;;21.40;12.80;;;;;;;-1.57;100.00;101602.93;105743;1259;73005;-75
2024/03/07 05:53:46;;;;;;;17.80;10.70;;;;;;;-1.50;100.00;101603.48;105748;1256;63958;-73
2024/03/07 05:56:14;;;;;;;20.90;11.30;;;;;;;-1.46;100.00;101602.48;105729;1256;72553;-74
2024/03/07 05:58:41;;;;;;;16.10;10.40;;;;;;;-1.45;100.00;101606.42;105716;1254;60387;-75
2024/03/07 06:01:09;;;;;;;16.50;11.10;;;;;;;-1.44;100.00;101607.63;105687;1254;59593;-75
2024/03/07 06:03:36;;;;;;;20.50;10.80;;;;;;;-1.42;100.00;101604.02;105836;1253;72948;-75
2024/03/07 06:06:06;;;;;;;17.30;10.20;;;;;;;-1.39;100.00;101602.17;105818;1256;63657;-76
2024/03/07 06:08:34;;;;;;;17.30;10.40;;;;;;;-1.35;100.00;101600.30;105787;1254;72698;-75
2024/03/07 06:11:01;;;;;;;19.30;11.70;;;;;;;-1.30;100.00;101600.50;105854;1258;59608;-74
2024/03/07 06:13:29;;;;;;;19.30;12.00;;;;;;;-1.20;100.00;101601.23;105841;1257;60349;-75
2024/03/07 06:15:57;;;;;;;17.00;10.80;;;;;;;-1.10;100.00;101604.70;105851;1253;72929;-75
2024/03/07 06:18:30;;;;;;;18.00;11.80;;;;;;;-1.02;100.00;101605.59;105767;1257;62511;-74
2024/03/07 06:20:56;;;;;;;17.30;11.30;;;;;;;-0.98;100.00;101605.09;105763;1257;70305;-74
2024/03/07 06:23:24;;;;;;;18.30;11.40;;;;;;;-1.03;100.00;101604.21;105874;1257;59673;-76
2024/03/07 06:25:51;;;;;;;21.50;11.00;;;;;;;-1.07;100.00;101600.09;105956;1254;59639;-75
2024/03/07 06:28:18;;;;;;;16.80;11.00;;;;;;;-1.06;100.00;101609.19;105791;1255;71810;-75
2024/03/07 06:30:46;;;;;;;20.50;11.50;;;;;;;-1.06;100.00;101605.75;105752;1257;63617;-74
2024/03/07 06:33:14;;;;;;;16.60;11.40;;;;;;;-1.07;100.00;101611.23;105751;1254;71120;-74
2024/03/07 06:35:42;;;;;;;20.30;12.00;;;;;;;-1.03;100.00;101608.51;105748;1254;59731;-75
2024/03/07 06:38:09;;;;;;;18.40;10.60;;;;;;;-0.98;100.00;101611.44;105903;1257;60018;-74
2024/03/07 06:40:40;;;;;;;17.90;11.30;;;;;;;-0.90;100.00;101610.09;107544;1254;73074;-73
2024/03/07 06:43:09;;;;;;;23.60;11.50;;;;;;;-0.83;100.00;101604.62;106727;1257;63586;-75
2024/03/07 06:45:37;;;;;;;17.80;11.10;;;;;;;-0.76;100.00;101607.22;105952;1253;71314;-76
2024/03/07 06:48:07;;;;;;;19.20;12.00;;;;;;;-0.69;100.00;101612.05;105840;1259;59641;-74
2024/03/07 06:50:37;;;;;;;22.20;13.10;;;;;;;-0.67;100.00;101613.27;105652;1254;60395;-73
2024/03/07 06:53:06;;;;;;;17.50;11.20;;;;;;;-0.68;100.00;101612.39;105666;1259;71934;-74
2024/03/07 06:55:37;;;;;;;23.70;12.90;;;;;;;-0.66;100.00;101610.52;105863;1257;64154;-74
2024/03/07 06:58:05;;;;;;;22.30;13.70;;;;;;;-0.58;100.00;101608.98;105786;1257;71883;-75
2024/03/07 07:00:35;;;;;;;21.60;13.90;;;;;;;-0.47;100.00;101617.59;105799;1257;60874;-75
2024/03/07 07:03:05;;;;;;;24.20;14.20;;;;;;;-0.45;100.00;101619.14;105855;1254;59628;-74
2024/03/07 07:05:33;;;;;;;21.40;14.00;;;;;;;-0.50;100.00;101618.95;105613;1254;73194;-73
2024/03/07 07:08:01;;;;;;;22.60;13.50;;;;;;;-0.50;100.00;101611.91;105710;1257;63860;-73
2024/03/07 07:10:29;;;;;;;20.70;13.10;;;;;;;-0.49;100.00;101613.11;105807;1253;72723;-74
2024/03/07 07:12:56;;;;;;;22.00;13.70;;;;;;;-0.46;100.00;101613.82;105851;1254;59689;-74
2024/03/07 07:15:23;;;;;;;19.20;12.50;;;;;;;-0.39;100.00;101618.63;105793;1254;60138;-74
2024/03/07 07:17:52;;;;;;;20.50;12.50;;;;;;;-0.34;100.00;101617.77;105846;1259;73097;-73
2024/03/07 07:20:19;;;;;;;17.80;12.40;;;;;;;-0.30;100.00;101618.64;105937;1254;63235;-75
2024/03/07 07:22:47;;;;;;;20.50;12.70;;;;;;;-0.22;100.00;101618.47;105719;1257;72896;-75
2024/03/07 07:25:14;;;;;;;23.60;13.70;;;;;;;-0.12;100.00;101619.16;105750;1257;59657;-73
2024/03/07 07:27:48;;;;;;;22.90;12.80;;;;;;;-0.03;100.00;101620.38;105805;1259;60200;-73
2024/03/07 07:30:17;;;;;;;23.20;13.20;;;;;;;0.08;100.00;101613.48;105813;1257;73102;-73
2024/03/07 07:32:45;;;;;;;20.80;12.80;;;;;;;0.22;100.00;101613.81;105735;1257;65816;-74
2024/03/07 07:35:15;;;;;;;19.30;12.50;;;;;;;0.35;100.00;101614.48;105734;1254;73808;-74
2024/03/07 07:37:48;;;;;;;21.10;11.60;;;;;;;0.44;100.00;101616.88;105841;1256;59608;-73
2024/03/07 07:40:19;;;;;;;18.60;12.50;;;;;;;0.56;100.00;101617.02;105811;1254;60208;-75
2024/03/07 07:42:47;;;;;;;20.70;12.70;;;;;;;0.59;100.00;101618.55;105829;1256;73408;-74
2024/03/07 07:45:15;;;;;;;17.60;11.60;;;;;;;0.65;100.00;101615.62;105769;1257;64289;-74
2024/03/07 07:47:48;;;;;;;20.50;13.30;;;;;;;0.74;100.00;101614.56;105836;1254;72851;-75
2024/03/07 07:50:17;;;;;;;17.10;11.20;;;;;;;0.84;100.00;101617.45;105764;1257;60429;-74
2024/03/07 07:52:51;;;;;;;23.20;13.80;;;;;;;0.87;100.00;101621.05;105845;1253;60479;-74
2024/03/07 07:55:23;;;;;;;23.50;11.90;;;;;;;0.78;100.00;101614.39;105729;1254;74022;-74
2024/03/07 07:57:55;;;;;;;21.70;13.40;;;;;;;0.76;100.00;101619.20;105735;1253;63379;-73
2024/03/07 08:00:23;;;;;;;25.70;13.30;;;;;;;0.72;100.00;101619.91;105714;1257;71922;-73
2024/03/07 08:02:54;;;;;;;21.80;13.10;;;;;;;0.73;100.00;101619.55;105809;1253;60467;-74
2024/03/07 08:05:24;;;;;;;17.20;12.40;;;;;;;0.82;100.00;101620.73;105891;1255;60586;-75
2024/03/07 08:07:57;;;;;;;18.60;12.10;;;;;;;0.93;100.00;101624.30;105764;1256;72925;-75
2024/03/07 08:10:25;;;;;;;16.00;11.00;;;;;;;1.20;100.00;101629.86;105709;1254;63504;-76
2024/03/07 08:12:53;;;;;;;16.50;11.70;;;;;;;1.48;100.00;101626.26;105857;1254;72885;-74
2024/03/07 08:15:20;;;;;;;20.80;12.80;;;;;;;1.68;97.38;101625.45;105902;1254;60530;-74
2024/03/07 08:17:47;;;;;;;22.20;13.70;;;;;;;1.80;95.38;101624.31;105705;1254;60351;-74
2024/03/07 08:20:18;;;;;;;17.00;10.50;;;;;;;1.88;93.03;101628.57;105722;1254;72905;-75
2024/03/07 08:22:45;;;;;;;16.60;11.50;;;;;;;1.86;90.55;101626.18;105753;1256;63569;-73
2024/03/07 08:25:15;;;;;;;16.90;11.50;;;;;;;1.77;91.29;101624.17;105697;1257;72687;-74
2024/03/07 08:27:45;;;;;;;17.70;11.20;;;;;;;1.68;92.98;101626.30;105750;1258;60348;-74
2024/03/07 08:30:14;;;;;;;15.80;11.80;;;;;;;1.60;93.50;101627.05;105946;1257;60477;-75
2024/03/07 08:32:45;;;;;;;17.80;11.40;;;;;;;1.56;94.48;101625.19;105792;1257;75037;-75
2024/03/07 08:35:12;;;;;;;20.40;12.40;;;;;;;1.60;97.25;101625.50;105717;1257;66722;-75
2024/03/07 08:37:40;;;;;;;19.20;12.60;;;;;;;1.70;96.46;101626.30;105803;1257;72686;-76
2024/03/07 08:40:09;;;;;;;18.90;12.30;;;;;;;1.84;96.56;101627.40;105860;1254;60613;-74
2024/03/07 08:42:37;;;;;;;18.70;11.90;;;;;;;1.92;93.14;101629.06;105922;1254;60600;-75
2024/03/07 08:45:05;;;;;;;21.30;12.70;;;;;;;1.92;90.44;101631.83;105778;1256;74768;-74
2024/03/07 08:47:33;;;;;;;18.60;12.80;;;;;;;1.91;89.35;101631.48;105702;1256;62934;-74
2024/03/07 08:50:02;;;;;;;17.00;12.20;;;;;;;2.00;90.39;101629.34;105750;1257;72787;-74
2024/03/07 08:52:29;;;;;;;21.80;12.20;;;;;;;2.19;89.73;101632.45;105888;1257;60444;-74
2024/03/07 08:54:57;;;;;;;19.70;12.60;;;;;;;2.34;83.87;101631.63;105779;1260;60409;-73
2024/03/07 08:57:24;;;;;;;16.90;11.80;;;;;;;2.35;82.13;101635.77;105803;1257;73878;-72
2024/03/07 08:59:51;;;;;;;15.60;11.10;;;;;;;2.42;79.45;101633.45;105618;1258;63458;-73
2024/03/07 09:02:18;;;;;;;18.70;12.20;;;;;;;2.78;79.38;101636.70;105729;1254;71651;-74
2024/03/07 09:04:47;;;;;;;16.90;11.80;;;;;;;3.33;75.86;101633.59;105679;1257;60818;-75
2024/03/07 09:07:17;;;;;;;18.90;13.40;;;;;;;3.83;70.49;101630.77;105877;1254;61539;-74
2024/03/07 09:09:47;;;;;;;20.30;12.00;;;;;;;4.19;65.41;101625.86;105721;1256;73688;-75
2024/03/07 09:12:15;;;;;;;16.40;11.40;;;;;;;4.62;64.95;101627.16;105790;1257;65525;-74
2024/03/07 09:14:42;;;;;;;18.10;11.90;;;;;;;5.24;58.79;101622.96;106039;1257;73901;-72
2024/03/07 09:17:13;;;;;;;16.90;12.40;;;;;;;5.72;54.99;101620.48;106932;1257;60613;-73
2024/03/07 09:19:41;;;;;;;19.20;12.30;;;;;;;6.26;52.54;101624.73;107143;1254;61242;-74
2024/03/07 09:22:09;;;;;;;18.70;12.20;;;;;;;6.82;50.51;101631.73;106569;1253;74674;-74
2024/03/07 09:24:37;;;;;;;14.30;11.60;;;;;;;7.29;48.48;101627.08;105951;1257;65164;-75
2024/03/07 09:27:04;;;;;;;17.40;12.20;;;;;;;7.78;47.02;101629.23;105793;1256;71726;-73
2024/03/07 09:29:33;;;;;;;15.90;11.50;;;;;;;8.18;45.13;101627.74;105824;1256;61394;-73
2024/03/07 09:32:00;;;;;;;16.60;11.00;;;;;;;8.57;43.83;101625.39;105865;1257;60698;-73
2024/03/07 09:34:29;;;;;;;17.00;11.40;;;;;;;8.84;42.84;101623.86;105763;1254;74157;-74
2024/03/07 09:36:56;;;;;;;14.10;11.30;;;;;;;9.13;42.65;101627.16;105935;1257;63076;-74
2024/03/07 09:39:24;;;;;;;13.30;10.20;;;;;;;9.47;41.29;101622.19;105867;1257;72346;-73
2024/03/07 09:41:51;;;;;;;20.10;12.20;;;;;;;9.66;40.89;101617.76;105968;1254;61365;-73
2024/03/07 09:44:22;;;;;;;17.60;12.30;;;;;;;9.84;40.18;101618.27;106008;1254;61362;-74
2024/03/07 09:46:50;;;;;;;14.10;11.30;;;;;;;9.95;39.20;101618.20;105819;1253;75078;-73
2024/03/07 09:49:17;;;;;;;16.30;11.40;;;;;;;9.91;39.17;101619.73;105789;1257;65105;-74
2024/03/07 09:51:46;;;;;;;15.40;11.60;;;;;;;9.99;39.28;101614.02;105772;1259;72028;-74
2024/03/07 09:54:14;;;;;;;15.20;11.30;;;;;;;10.19;38.74;101613.87;105852;1253;60602;-74
2024/03/07 09:56:41;;;;;;;17.20;11.10;;;;;;;10.39;38.16;101612.02;105705;1254;60527;-73
2024/03/07 09:59:12;;;;;;;13.60;10.40;;;;;;;10.47;37.71;101606.23;105648;1260;72508;-72
2024/03/07 10:01:39;;;;;;;13.80;10.40;;;;;;;10.29;37.94;101602.46;105671;1256;63713;-73
2024/03/07 10:04:11;;;;;;;15.20;10.00;;;;;;;10.28;37.88;101603.03;105650;1254;72887;-73
2024/03/07 10:06:39;;;;;;;13.20;11.10;;;;;;;10.27;37.85;101595.17;105804;1253;61407;-75
2024/03/07 10:09:09;;;;;;;14.00;11.10;;;;;;;10.28;38.12;101594.60;105722;1252;60563;-75
2024/03/07 10:11:36;;;;;;;12.10;10.20;;;;;;;10.37;37.62;101591.09;105710;1254;73788;-75
2024/03/07 10:14:04;;;;;;;14.60;10.20;;;;;;;10.47;37.32;101594.15;105756;1253;64583;-74
2024/03/07 10:16:32;;;;;;;12.70;10.10;;;;;;;10.62;37.43;101589.66;105664;1254;72491;-75
2024/03/07 10:19:04;;;;;;;13.00;10.20;;;;;;;10.84;37.39;101584.64;105800;1253;60518;-76
2024/03/07 10:21:33;;;;;;;11.20;9.90;;;;;;;11.03;37.48;101580.08;105854;1254;61125;-74
2024/03/07 10:24:06;;;;;;;12.90;10.80;;;;;;;11.29;37.00;101577.64;105808;1256;74042;-75
2024/03/07 10:26:37;;;;;;;18.80;11.30;;;;;;;11.58;36.39;101577.98;105849;1254;63057;-75
2024/03/07 10:29:05;;;;;;;13.90;10.70;;;;;;;11.66;35.83;101577.98;105949;1257;73920;-75
2024/03/07 10:31:34;;;;;;;13.00;10.00;;;;;;;11.60;35.83;101575.11;105832;1253;60454;-77
2024/03/07 10:34:03;;;;;;;13.80;11.40;;;;;;;11.74;35.25;101572.83;105908;1253;60332;-74
2024/03/07 10:36:31;;;;;;;13.20;9.50;;;;;;;11.70;34.67;101567.42;105726;1253;73932;-75
2024/03/07 10:39:11;;;;;;;11.70;9.80;;;;;;;11.62;34.99;101578.87;105883;1254;64415;-76
2024/03/07 10:41:46;;;;;;;12.50;10.70;;;;;;;11.62;34.65;101573.44;105750;1254;72732;-76
2024/03/07 10:44:24;;;;;;;11.90;10.00;;;;;;;11.54;34.79;101574.88;105906;1253;60536;-75
2024/03/07 10:46:55;;;;;;;12.40;10.30;;;;;;;11.60;34.85;101569.84;105932;1256;60317;-75
2024/03/07 10:49:24;;;;;;;14.40;9.70;;;;;;;11.73;34.31;101571.85;106000;1253;74021;-75
2024/03/07 10:52:03;;;;;;;12.60;9.70;;;;;;;11.66;34.18;101566.76;105589;1253;64973;-77
2024/03/07 10:54:46;;;;;;;12.20;10.40;;;;;;;11.45;34.76;101559.73;105760;1253;73771;-74
2024/03/07 10:57:22;;;;;;;13.40;10.80;;;;;;;11.56;34.74;101560.27;105844;1254;61605;-76
2024/03/07 10:59:53;;;;;;;14.90;10.70;;;;;;;11.56;34.77;101560.07;105915;1256;60391;-74
2024/03/07 11:02:24;;;;;;;13.40;10.80;;;;;;;11.72;34.67;101558.59;105820;1254;72946;-74
2024/03/07 11:04:54;;;;;;;11.80;10.20;;;;;;;11.74;34.56;101558.83;105865;1256;61731;-76